Time;durP1;ratioP1;P1;durP2;ratioP2;P2;SDS_P1;SDS_P2;PMS_P1;PMS_P2;Temp;Humidity;BMP_temperature;BMP_pressure;BME280_temperature;BME280_humidity;BME280_pressure;Samples;Min_cycle;Max_cycle;Signal;HPM_P1;HPM_P2
2022/10/25 00:02:09;;;;;;;;;;;11.60;99.90;;;;;;5124564;28;19924;-72
2022/10/25 00:04:36;;;;;;;;;;;11.60;99.90;;;;;;5123892;28;19990;-73
2022/10/25 00:07:02;;;;;;;;;;;11.50;99.90;;;;;;5123730;28;19983;-73
2022/10/25 00:09:29;;;;;;;;;;;11.60;99.90;;;;;;5117916;28;19920;-72
2022/10/25 00:11:55;;;;;;;;;;;11.60;99.90;;;;;;5104363;28;19920;-72
2022/10/25 00:14:22;;;;;;;;;;;11.50;99.90;;;;;;5103980;28;19926;-71
2022/10/25 00:16:50;;;;;;;;;;;11.60;99.90;;;;;;5103568;28;19920;-72
2022/10/25 00:19:16;;;;;;;;;;;11.60;99.90;;;;;;5104038;28;19960;-72
2022/10/25 00:21:43;;;;;;;;;;;11.60;99.90;;;;;;5110848;28;20003;-72
2022/10/25 00:24:11;;;;;;;;;;;11.70;99.90;;;;;;5116313;28;20199;-72
2022/10/25 00:26:39;;;;;;;;;;;11.60;99.90;;;;;;5109365;28;19920;-72
2022/10/25 00:29:05;;;;;;;;;;;11.60;99.90;;;;;;5122343;28;19955;-72
2022/10/25 00:31:32;;;;;;;;;;;11.50;99.90;;;;;;5123900;28;20175;-72
2022/10/25 00:34:00;;;;;;;;;;;11.50;99.90;;;;;;5123889;28;19926;-72
2022/10/25 00:36:29;;;;;;;;;;;11.50;99.90;;;;;;5120849;28;19920;-73
2022/10/25 00:38:56;;;;;;;;;;;11.50;99.90;;;;;;5112936;28;19926;-72
2022/10/25 00:41:25;;;;;;;;;;;11.50;99.90;;;;;;5124516;28;19920;-72
2022/10/25 00:43:52;;;;;;;;;;;11.50;99.90;;;;;;5123858;28;19920;-72
2022/10/25 00:46:22;;;;;;;;;;;11.40;99.90;;;;;;5123660;28;20225;-72
2022/10/25 00:48:52;;;;;;;;;;;11.40;99.90;;;;;;5124580;28;19962;-72
2022/10/25 00:51:21;;;;;;;;;;;11.40;99.90;;;;;;5124453;28;19920;-72
2022/10/25 00:53:48;;;;;;;;;;;11.40;99.90;;;;;;5124563;28;19926;-72
2022/10/25 00:56:16;;;;;;;;;;;11.40;99.90;;;;;;5123527;28;19920;-72
2022/10/25 00:58:44;;;;;;;;;;;11.30;99.90;;;;;;5124510;28;20003;-72
2022/10/25 01:01:13;;;;;;;;;;;11.30;99.90;;;;;;5124401;28;19926;-72
2022/10/25 01:03:40;;;;;;;;;;;11.30;99.90;;;;;;5124391;28;19961;-72
2022/10/25 01:06:10;;;;;;;;;;;11.30;99.90;;;;;;5123696;28;19923;-73
2022/10/25 01:08:38;;;;;;;;;;;11.30;99.90;;;;;;5108515;28;19927;-72
2022/10/25 01:11:05;;;;;;;;;;;11.30;99.90;;;;;;5104020;28;19983;-72
2022/10/25 01:13:32;;;;;;;;;;;11.30;99.90;;;;;;5103862;28;19935;-72
2022/10/25 01:16:03;;;;;;;;;;;11.30;99.90;;;;;;5103316;28;19924;-73
2022/10/25 01:18:34;;;;;;;;;;;11.20;99.90;;;;;;5103991;28;19983;-72
2022/10/25 01:21:15;;;;;;;;;;;11.20;99.90;;;;;;5103932;28;19927;-72
2022/10/25 01:23:58;;;;;;;;;;;11.30;99.90;;;;;;5101722;28;19920;-72
2022/10/25 01:26:37;;;;;;;;;;;11.30;99.90;;;;;;5103151;28;19920;-71
2022/10/25 01:29:25;;;;;;;;;;;11.30;99.90;;;;;;5103770;28;19920;-73
2022/10/25 01:31:57;;;;;;;;;;;11.30;99.90;;;;;;5103455;28;20237;-72
2022/10/25 01:34:26;;;;;;;;;;;11.20;99.90;;;;;;5103786;28;19919;-72
2022/10/25 01:36:57;;;;;;;;;;;11.30;99.90;;;;;;5103183;28;19999;-72
2022/10/25 01:39:25;;;;;;;;;;;11.30;99.90;;;;;;5103652;28;20133;-73
2022/10/25 01:41:57;;;;;;;;;;;11.20;99.90;;;;;;5103836;28;19927;-73
2022/10/25 01:44:29;;;;;;;;;;;11.20;99.90;;;;;;5102903;28;19928;-73
2022/10/25 01:47:00;;;;;;;;;;;11.20;99.90;;;;;;5103218;28;19920;-73
2022/10/25 01:49:29;;;;;;;;;;;11.20;99.90;;;;;;5103280;28;19920;-73
2022/10/25 01:51:55;;;;;;;;;;;11.20;99.90;;;;;;5103319;28;19920;-74
2022/10/25 01:54:23;;;;;;;;;;;11.20;99.90;;;;;;5103778;28;19926;-73
2022/10/25 01:56:56;;;;;;;;;;;11.20;99.90;;;;;;5125407;28;19926;-72
2022/10/25 01:59:31;;;;;;;;;;;11.20;99.90;;;;;;5126811;28;19920;-74
2022/10/25 02:02:02;;;;;;;;;;;11.20;99.90;;;;;;5126853;28;19989;-74
2022/10/25 02:04:35;;;;;;;;;;;11.20;99.90;;;;;;5115734;28;19926;-72
2022/10/25 02:07:05;;;;;;;;;;;11.10;99.90;;;;;;5126323;28;19986;-74
2022/10/25 02:09:33;;;;;;;;;;;11.00;99.90;;;;;;5106381;28;19987;-74
2022/10/25 02:12:00;;;;;;;;;;;11.00;99.90;;;;;;5117848;28;19920;-74
2022/10/25 02:14:29;;;;;;;;;;;11.00;99.90;;;;;;5120160;28;20106;-74
2022/10/25 02:16:57;;;;;;;;;;;11.00;99.90;;;;;;5126381;28;19920;-74
2022/10/25 02:19:28;;;;;;;;;;;10.90;99.90;;;;;;5126406;28;19928;-74
2022/10/25 02:21:55;;;;;;;;;;;10.80;99.90;;;;;;5126012;28;19927;-74
2022/10/25 02:24:25;;;;;;;;;;;10.90;99.90;;;;;;5122318;28;19920;-74
2022/10/25 02:26:52;;;;;;;;;;;10.80;99.90;;;;;;5105488;28;19981;-73
2022/10/25 02:29:19;;;;;;;;;;;10.80;99.90;;;;;;5105705;28;20208;-74
2022/10/25 02:31:46;;;;;;;;;;;10.80;99.90;;;;;;5106160;28;19987;-74
2022/10/25 02:34:13;;;;;;;;;;;10.80;99.90;;;;;;5105847;28;19982;-74
2022/10/25 02:36:41;;;;;;;;;;;10.80;99.90;;;;;;5104884;28;19991;-73
2022/10/25 02:39:07;;;;;;;;;;;10.80;99.90;;;;;;5106049;28;19920;-72
2022/10/25 02:41:34;;;;;;;;;;;10.80;99.90;;;;;;5107209;28;19926;-74
2022/10/25 02:44:01;;;;;;;;;;;10.80;99.90;;;;;;5126080;28;19991;-74
2022/10/25 02:46:28;;;;;;;;;;;10.80;99.90;;;;;;5125272;28;19981;-72
2022/10/25 02:48:54;;;;;;;;;;;10.80;99.90;;;;;;5125943;28;20211;-74
2022/10/25 02:51:21;;;;;;;;;;;10.80;99.90;;;;;;5126138;28;19927;-74
2022/10/25 02:53:49;;;;;;;;;;;10.80;99.90;;;;;;5126103;28;19919;-74
2022/10/25 02:56:18;;;;;;;;;;;10.80;99.90;;;;;;5114504;28;20204;-73
2022/10/25 02:58:45;;;;;;;;;;;10.90;99.90;;;;;;5105628;28;19937;-75
2022/10/25 03:01:12;;;;;;;;;;;10.90;99.90;;;;;;5105668;28;19924;-74
2022/10/25 03:03:39;;;;;;;;;;;10.90;99.90;;;;;;5105202;28;20119;-74
2022/10/25 03:06:06;;;;;;;;;;;10.90;99.90;;;;;;5103833;28;19920;-75
2022/10/25 03:08:32;;;;;;;;;;;10.90;99.90;;;;;;5121866;28;19996;-73
2022/10/25 03:11:00;;;;;;;;;;;10.80;99.90;;;;;;5125539;28;20229;-74
2022/10/25 03:13:27;;;;;;;;;;;10.80;99.90;;;;;;5125712;28;19919;-74
2022/10/25 03:15:54;;;;;;;;;;;10.80;99.90;;;;;;5124573;28;19920;-74
2022/10/25 03:18:21;;;;;;;;;;;10.80;99.90;;;;;;5125451;28;19939;-74
2022/10/25 03:20:48;;;;;;;;;;;10.80;99.90;;;;;;5125105;28;20199;-75
2022/10/25 03:23:15;;;;;;;;;;;10.80;99.90;;;;;;5125429;28;19998;-74
2022/10/25 03:25:41;;;;;;;;;;;10.80;99.90;;;;;;5124580;28;19991;-74
2022/10/25 03:28:09;;;;;;;;;;;10.80;99.90;;;;;;5125376;28;19982;-75
2022/10/25 03:30:36;;;;;;;;;;;10.80;99.90;;;;;;5125323;28;19919;-73
2022/10/25 03:33:03;;;;;;;;;;;10.80;99.90;;;;;;5125108;28;20243;-72
2022/10/25 03:35:29;;;;;;;;;;;10.80;99.90;;;;;;5124473;28;19920;-76
2022/10/25 03:37:56;;;;;;;;;;;10.70;99.90;;;;;;5125042;28;19982;-75
2022/10/25 03:40:23;;;;;;;;;;;10.80;99.90;;;;;;5125316;28;19926;-74
2022/10/25 03:42:49;;;;;;;;;;;10.70;99.90;;;;;;5125193;28;20204;-74
2022/10/25 03:45:18;;;;;;;;;;;10.70;99.90;;;;;;5124126;28;19926;-74
2022/10/25 03:47:45;;;;;;;;;;;10.70;99.90;;;;;;5124789;28;20203;-74
2022/10/25 03:50:11;;;;;;;;;;;10.70;99.90;;;;;;5125057;28;19920;-73
2022/10/25 03:52:38;;;;;;;;;;;10.60;99.90;;;;;;5125054;28;19919;-74
2022/10/25 03:55:05;;;;;;;;;;;10.60;99.90;;;;;;5119430;28;19979;-74
2022/10/25 03:57:31;;;;;;;;;;;10.60;99.90;;;;;;5124619;28;19919;-73
2022/10/25 03:59:58;;;;;;;;;;;10.60;99.90;;;;;;5124455;28;20203;-73
2022/10/25 04:02:26;;;;;;;;;;;10.50;99.90;;;;;;5124467;28;19934;-74
2022/10/25 04:04:53;;;;;;;;;;;10.50;99.90;;;;;;5123852;28;19920;-73
2022/10/25 04:07:20;;;;;;;;;;;10.50;99.90;;;;;;5123680;28;19920;-74
2022/10/25 04:09:46;;;;;;;;;;;10.40;99.90;;;;;;5124635;28;19926;-74
2022/10/25 04:12:13;;;;;;;;;;;10.40;99.90;;;;;;5119978;28;20007;-73
2022/10/25 04:14:39;;;;;;;;;;;10.40;99.90;;;;;;5123539;28;20230;-74
2022/10/25 04:17:06;;;;;;;;;;;10.40;99.90;;;;;;5117528;28;19926;-74
2022/10/25 04:19:34;;;;;;;;;;;10.40;99.90;;;;;;5123622;28;20197;-74
2022/10/25 04:22:01;;;;;;;;;;;10.40;99.90;;;;;;5124216;27;19920;-74
2022/10/25 04:24:27;;;;;;;;;;;10.40;99.90;;;;;;5122975;28;19924;-73
2022/10/25 04:26:54;;;;;;;;;;;10.40;99.90;;;;;;5112152;28;19926;-73
2022/10/25 04:29:21;;;;;;;;;;;10.40;99.90;;;;;;5122683;28;19919;-73
2022/10/25 04:31:47;;;;;;;;;;;10.40;99.90;;;;;;5120693;28;19920;-73
2022/10/25 04:34:14;;;;;;;;;;;10.40;99.90;;;;;;5107310;28;19983;-73
2022/10/25 04:36:42;;;;;;;;;;;10.50;99.90;;;;;;5103165;28;19990;-73
2022/10/25 04:39:09;;;;;;;;;;;10.50;99.90;;;;;;5104145;28;19958;-73
2022/10/25 04:41:35;;;;;;;;;;;10.50;99.90;;;;;;5104170;28;20085;-73
2022/10/25 04:44:02;;;;;;;;;;;10.50;99.90;;;;;;5104463;28;19987;-74
2022/10/25 04:46:29;;;;;;;;;;;10.60;99.90;;;;;;5103271;28;19927;-73
2022/10/25 04:48:56;;;;;;;;;;;10.70;99.90;;;;;;5104154;28;19988;-73
2022/10/25 04:51:22;;;;;;;;;;;10.70;99.90;;;;;;5117874;28;19951;-72
2022/10/25 04:53:52;;;;;;;;;;;10.70;99.90;;;;;;5124146;28;19991;-74
2022/10/25 04:56:19;;;;;;;;;;;10.80;99.90;;;;;;5123282;28;19919;-73
2022/10/25 04:58:46;;;;;;;;;;;10.80;99.90;;;;;;5124314;28;19987;-73
2022/10/25 05:01:13;;;;;;;;;;;10.80;99.90;;;;;;5124103;28;19926;-74
2022/10/25 05:03:40;;;;;;;;;;;10.80;99.90;;;;;;5124554;28;19926;-73
2022/10/25 05:06:08;;;;;;;;;;;10.80;99.90;;;;;;5123238;28;19930;-73
2022/10/25 05:08:35;;;;;;;;;;;10.80;99.90;;;;;;5124465;28;19920;-72
2022/10/25 05:11:03;;;;;;;;;;;10.80;99.90;;;;;;5101765;28;20194;-73
2022/10/25 05:13:31;;;;;;;;;;;10.80;99.90;;;;;;5103660;28;19942;-72
2022/10/25 05:15:58;;;;;;;;;;;10.90;99.90;;;;;;5102018;28;19991;-75
2022/10/25 05:18:24;;;;;;;;;;;10.90;99.90;;;;;;5103692;28;19948;-73
2022/10/25 05:20:52;;;;;;;;;;;11.00;99.90;;;;;;5102945;28;20187;-71
2022/10/25 05:23:18;;;;;;;;;;;10.90;99.90;;;;;;5103482;28;19924;-71
2022/10/25 05:25:45;;;;;;;;;;;11.00;99.90;;;;;;5102721;28;19987;-75
2022/10/25 05:28:13;;;;;;;;;;;11.00;99.90;;;;;;5103236;28;19995;-70
2022/10/25 05:30:40;;;;;;;;;;;10.90;99.90;;;;;;5106699;28;19920;-73
2022/10/25 05:33:06;;;;;;;;;;;10.90;99.90;;;;;;5124162;28;19919;-73
2022/10/25 05:35:33;;;;;;;;;;;11.00;99.90;;;;;;5126872;28;20282;-72
2022/10/25 05:38:00;;;;;;;;;;;11.00;99.90;;;;;;5127679;28;20165;-72
2022/10/25 05:40:27;;;;;;;;;;;11.00;99.90;;;;;;5127635;28;20203;-72
2022/10/25 05:42:54;;;;;;;;;;;11.00;99.90;;;;;;5127609;28;19926;-73
2022/10/25 05:45:22;;;;;;;;;;;11.00;99.90;;;;;;5106479;28;19920;-73
2022/10/25 05:47:48;;;;;;;;;;;11.00;99.90;;;;;;5107200;28;19920;-72
2022/10/25 05:50:15;;;;;;;;;;;11.00;99.90;;;;;;5107183;28;19987;-74
2022/10/25 05:52:42;;;;;;;;;;;11.00;99.90;;;;;;5106846;28;19934;-73
2022/10/25 05:55:08;;;;;;;;;;;11.00;99.90;;;;;;5105821;28;19920;-72
2022/10/25 05:57:35;;;;;;;;;;;11.00;99.90;;;;;;5106940;28;19920;-72
2022/10/25 06:00:02;;;;;;;;;;;11.00;99.90;;;;;;5106741;28;20230;-72
2022/10/25 06:02:30;;;;;;;;;;;11.00;99.90;;;;;;5106984;28;19987;-72
2022/10/25 06:04:57;;;;;;;;;;;11.00;99.90;;;;;;5106214;28;19920;-73
2022/10/25 06:07:23;;;;;;;;;;;11.00;99.90;;;;;;5106909;28;19991;-72
2022/10/25 06:09:50;;;;;;;;;;;11.00;99.90;;;;;;5106733;28;19928;-72
2022/10/25 06:12:16;;;;;;;;;;;11.00;99.90;;;;;;5106849;28;19951;-72
2022/10/25 06:14:43;;;;;;;;;;;11.00;99.90;;;;;;5105618;28;19927;-73
2022/10/25 06:17:11;;;;;;;;;;;11.00;99.90;;;;;;5106376;28;20215;-72
2022/10/25 06:19:39;;;;;;;;;;;11.10;99.90;;;;;;5106633;28;19920;-72
2022/10/25 06:22:06;;;;;;;;;;;11.00;99.90;;;;;;5106655;28;19926;-73
2022/10/25 06:24:32;;;;;;;;;;;11.00;99.90;;;;;;5105839;28;19920;-73
2022/10/25 06:26:59;;;;;;;;;;;11.00;99.90;;;;;;5106426;28;19963;-72
2022/10/25 06:29:25;;;;;;;;;;;11.00;99.90;;;;;;5106506;28;19954;-72
2022/10/25 06:31:52;;;;;;;;;;;11.10;99.90;;;;;;5106509;28;19986;-72
2022/10/25 06:34:19;;;;;;;;;;;11.00;99.90;;;;;;5106231;28;19920;-73
2022/10/25 06:36:47;;;;;;;;;;;11.10;99.90;;;;;;5100170;28;19937;-72
2022/10/25 06:39:13;;;;;;;;;;;11.10;99.90;;;;;;5106285;28;19920;-73
2022/10/25 06:41:40;;;;;;;;;;;11.20;99.90;;;;;;5122227;28;19955;-73
2022/10/25 06:44:07;;;;;;;;;;;11.10;99.90;;;;;;5114053;28;19966;-73
2022/10/25 06:46:35;;;;;;;;;;;11.10;99.90;;;;;;5115745;28;19986;-72
2022/10/25 06:49:04;;;;;;;;;;;11.20;99.90;;;;;;5126005;28;19942;-72
2022/10/25 06:51:31;;;;;;;;;;;11.20;99.90;;;;;;5125795;28;19926;-73
2022/10/25 06:54:00;;;;;;;;;;;11.30;99.90;;;;;;5102983;28;19973;-73
2022/10/25 06:56:27;;;;;;;;;;;11.40;99.90;;;;;;5104473;28;19952;-73
2022/10/25 06:58:54;;;;;;;;;;;11.40;99.90;;;;;;5105670;28;19920;-73
2022/10/25 07:01:21;;;;;;;;;;;11.50;99.90;;;;;;5105153;28;19927;-72
2022/10/25 07:03:49;;;;;;;;;;;11.50;99.90;;;;;;5105393;28;19926;-73
2022/10/25 07:06:17;;;;;;;;;;;11.60;99.90;;;;;;5104386;28;19920;-73
2022/10/25 07:08:44;;;;;;;;;;;11.70;99.90;;;;;;5104628;28;19926;-72
2022/10/25 07:11:14;;;;;;;;;;;11.70;99.90;;;;;;5105332;28;19952;-73
2022/10/25 07:13:41;;;;;;;;;;;11.80;99.90;;;;;;5104712;28;19920;-73
2022/10/25 07:16:09;;;;;;;;;;;11.80;99.90;;;;;;5104230;28;20019;-73
2022/10/25 07:18:36;;;;;;;;;;;11.90;99.90;;;;;;5105024;28;19983;-73
2022/10/25 07:21:04;;;;;;;;;;;11.90;99.90;;;;;;5104902;28;19926;-72
2022/10/25 07:23:31;;;;;;;;;;;12.00;99.90;;;;;;5105273;28;19920;-73
2022/10/25 07:25:57;;;;;;;;;;;12.00;99.90;;;;;;5103863;28;19934;-73
2022/10/25 07:28:26;;;;;;;;;;;12.10;99.90;;;;;;5104466;28;19943;-73
2022/10/25 07:30:52;;;;;;;;;;;12.10;99.90;;;;;;5104718;28;19920;-73
2022/10/25 07:33:19;;;;;;;;;;;12.20;99.90;;;;;;5105006;28;19920;-72
2022/10/25 07:35:46;;;;;;;;;;;12.20;99.90;;;;;;5110387;27;19926;-73
2022/10/25 07:38:13;;;;;;;;;;;12.30;99.90;;;;;;5130547;27;19990;-72
2022/10/25 07:40:40;;;;;;;;;;;12.30;99.90;;;;;;5124695;28;20241;-72
2022/10/25 07:43:06;;;;;;;;;;;12.40;99.90;;;;;;5121677;28;20015;-72
2022/10/25 07:45:34;;;;;;;;;;;12.40;99.90;;;;;;5103675;28;19955;-71
2022/10/25 07:48:01;;;;;;;;;;;12.50;99.90;;;;;;5124711;28;19990;-72
2022/10/25 07:50:27;;;;;;;;;;;12.50;99.90;;;;;;5124755;28;20061;-73
2022/10/25 07:52:57;;;;;;;;;;;12.50;99.90;;;;;;5124424;28;19955;-72
2022/10/25 07:55:24;;;;;;;;;;;12.60;99.90;;;;;;5121425;28;19957;-72
2022/10/25 07:57:51;;;;;;;;;;;12.60;99.90;;;;;;5124334;28;19920;-71
2022/10/25 08:00:18;;;;;;;;;;;12.60;99.90;;;;;;5124664;28;20050;-72
2022/10/25 08:02:46;;;;;;;;;;;12.60;99.90;;;;;;5120434;28;20115;-71
2022/10/25 08:05:12;;;;;;;;;;;12.70;99.90;;;;;;5102238;28;19934;-71
2022/10/25 08:07:39;;;;;;;;;;;12.70;99.90;;;;;;5118866;28;19926;-72
2022/10/25 08:10:06;;;;;;;;;;;12.70;99.90;;;;;;5122510;28;19920;-71
2022/10/25 08:12:32;;;;;;;;;;;12.70;99.90;;;;;;5104001;28;19920;-72
2022/10/25 08:14:59;;;;;;;;;;;12.70;99.90;;;;;;5103180;28;19983;-71
2022/10/25 08:17:25;;;;;;;;;;;12.70;99.90;;;;;;5115969;28;19978;-71
2022/10/25 08:19:53;;;;;;;;;;;12.80;99.90;;;;;;5124025;28;19920;-72
2022/10/25 08:22:20;;;;;;;;;;;12.80;99.90;;;;;;5124157;28;20114;-71
2022/10/25 08:24:47;;;;;;;;;;;12.80;99.90;;;;;;5123307;28;19928;-72
2022/10/25 08:27:13;;;;;;;;;;;12.80;99.90;;;;;;5124060;28;20246;-72
2022/10/25 08:29:40;;;;;;;;;;;12.80;99.90;;;;;;5108490;28;19962;-71
2022/10/25 08:32:06;;;;;;;;;;;12.80;99.90;;;;;;5103630;28;20111;-72
2022/10/25 08:34:33;;;;;;;;;;;12.80;99.90;;;;;;5103007;28;19991;-72
2022/10/25 08:37:01;;;;;;;;;;;12.90;99.90;;;;;;5118173;27;20225;-72
2022/10/25 08:39:27;;;;;;;;;;;13.00;99.90;;;;;;5114775;27;19919;-73
2022/10/25 08:41:55;;;;;;;;;;;13.10;99.90;;;;;;5144329;27;19927;-72
2022/10/25 08:44:29;;;;;;;;;;;13.10;99.90;;;;;;5130482;28;19920;-72
2022/10/25 08:46:58;;;;;;;;;;;13.20;99.90;;;;;;5122528;28;19926;-72
2022/10/25 08:49:27;;;;;;;;;;;13.20;99.90;;;;;;5103325;28;19920;-72
2022/10/25 08:51:54;;;;;;;;;;;13.30;99.90;;;;;;5103049;28;19939;-72
2022/10/25 08:54:24;;;;;;;;;;;13.30;99.90;;;;;;5103397;28;20122;-72
2022/10/25 08:56:52;;;;;;;;;;;13.40;99.90;;;;;;5102544;28;19987;-72
2022/10/25 08:59:23;;;;;;;;;;;13.40;99.90;;;;;;5104473;28;19924;-72
2022/10/25 09:01:52;;;;;;;;;;;13.50;99.90;;;;;;5121647;28;19926;-72
2022/10/25 09:04:19;;;;;;;;;;;13.50;99.90;;;;;;5124284;28;19919;-73
2022/10/25 09:06:50;;;;;;;;;;;13.50;99.90;;;;;;5124653;28;20245;-72
2022/10/25 09:09:24;;;;;;;;;;;13.60;99.90;;;;;;5127959;28;19919;-72
2022/10/25 09:11:58;;;;;;;;;;;13.60;99.90;;;;;;5112304;28;19920;-72
2022/10/25 09:14:30;;;;;;;;;;;13.60;99.90;;;;;;5127578;28;20203;-73
2022/10/25 09:17:02;;;;;;;;;;;13.70;99.90;;;;;;5127612;28;20118;-72
2022/10/25 09:19:32;;;;;;;;;;;13.70;99.90;;;;;;5127662;28;19920;-73
2022/10/25 09:22:00;;;;;;;;;;;13.70;99.90;;;;;;5127049;28;19919;-72
2022/10/25 09:24:28;;;;;;;;;;;13.80;99.90;;;;;;5117195;28;20207;-73
2022/10/25 09:27:04;;;;;;;;;;;13.90;99.90;;;;;;5125624;27;19920;-73
2022/10/25 09:29:33;;;;;;;;;;;13.90;99.90;;;;;;5128020;28;20114;-73
2022/10/25 09:32:01;;;;;;;;;;;14.00;99.90;;;;;;5122865;28;19926;-73
2022/10/25 09:34:30;;;;;;;;;;;14.10;99.90;;;;;;5117944;28;20203;-73
2022/10/25 09:36:59;;;;;;;;;;;14.10;99.90;;;;;;5114607;28;19920;-72
2022/10/25 09:39:31;;;;;;;;;;;14.10;99.90;;;;;;5103316;28;20242;-72
2022/10/25 09:42:00;;;;;;;;;;;14.20;99.90;;;;;;5105435;28;19973;-72
2022/10/25 09:44:34;;;;;;;;;;;14.20;99.90;;;;;;5106826;28;19987;-74
2022/10/25 09:47:06;;;;;;;;;;;14.30;99.90;;;;;;5124821;28;19920;-73
2022/10/25 09:49:36;;;;;;;;;;;14.30;99.90;;;;;;5124490;28;19994;-73
2022/10/25 09:52:06;;;;;;;;;;;14.40;99.90;;;;;;5122828;28;19920;-73
2022/10/25 09:54:37;;;;;;;;;;;14.30;99.90;;;;;;5125412;28;19927;-71
2022/10/25 09:57:05;;;;;;;;;;;14.40;99.90;;;;;;5122255;28;20127;-73
2022/10/25 09:59:31;;;;;;;;;;;14.50;99.90;;;;;;5106527;28;19919;-74
2022/10/25 10:01:58;;;;;;;;;;;14.50;99.90;;;;;;5106634;28;19979;-73
2022/10/25 10:04:27;;;;;;;;;;;14.60;99.90;;;;;;5106481;28;19920;-73
2022/10/25 10:06:56;;;;;;;;;;;14.60;99.90;;;;;;5105653;28;19930;-73
2022/10/25 10:09:24;;;;;;;;;;;14.70;99.90;;;;;;5107084;28;20123;-73
2022/10/25 10:11:52;;;;;;;;;;;14.80;99.90;;;;;;5106518;28;19926;-73
2022/10/25 10:14:26;;;;;;;;;;;14.80;99.90;;;;;;5106308;28;19927;-73
2022/10/25 10:16:54;;;;;;;;;;;14.80;99.90;;;;;;5104364;28;19927;-74
2022/10/25 10:19:22;;;;;;;;;;;14.90;99.90;;;;;;5106430;28;19920;-73
2022/10/25 10:21:50;;;;;;;;;;;14.90;99.90;;;;;;5120299;28;19920;-73
2022/10/25 10:24:19;;;;;;;;;;;14.90;99.90;;;;;;5126632;28;19920;-74
2022/10/25 10:26:47;;;;;;;;;;;14.90;99.90;;;;;;5125687;28;19994;-73
2022/10/25 10:29:17;;;;;;;;;;;14.90;99.90;;;;;;5126635;28;19930;-73
2022/10/25 10:31:47;;;;;;;;;;;14.90;99.90;;;;;;5126344;28;19920;-73
2022/10/25 10:34:23;;;;;;;;;;;14.90;99.90;;;;;;5126057;28;19935;-73
2022/10/25 10:37:00;;;;;;;;;;;14.90;99.90;;;;;;5115724;28;19920;-73
2022/10/25 10:39:27;;;;;;;;;;;14.90;99.90;;;;;;5105145;28;19927;-73
2022/10/25 10:42:02;;;;;;;;;;;14.90;99.90;;;;;;5105650;28;19926;-73
2022/10/25 10:44:29;;;;;;;;;;;14.90;99.90;;;;;;5105470;28;19920;-74
2022/10/25 10:46:57;;;;;;;;;;;14.80;99.90;;;;;;5105721;28;19919;-73
2022/10/25 10:49:31;;;;;;;;;;;14.90;99.90;;;;;;5106097;28;19921;-74
2022/10/25 10:51:58;;;;;;;;;;;14.90;99.90;;;;;;5105522;28;19934;-74
2022/10/25 10:54:25;;;;;;;;;;;14.90;99.90;;;;;;5102967;28;19987;-74
2022/10/25 10:56:53;;;;;;;;;;;14.90;99.90;;;;;;5104626;28;19970;-74
2022/10/25 10:59:34;;;;;;;;;;;14.90;99.90;;;;;;5105215;28;19923;-74
2022/10/25 11:02:16;;;;;;;;;;;15.00;99.90;;;;;;5105516;28;19920;-74
2022/10/25 11:04:49;;;;;;;;;;;15.10;99.90;;;;;;5104799;28;19920;-73
2022/10/25 11:07:21;;;;;;;;;;;15.20;99.90;;;;;;5104890;28;19999;-73
2022/10/25 11:09:47;;;;;;;;;;;15.30;99.90;;;;;;5105072;28;20254;-74
2022/10/25 11:12:14;;;;;;;;;;;15.50;99.90;;;;;;5105233;28;19927;-73
2022/10/25 11:14:41;;;;;;;;;;;15.80;99.90;;;;;;5104363;28;20207;-74
2022/10/25 11:17:11;;;;;;;;;;;16.00;99.90;;;;;;5105202;28;19983;-73
2022/10/25 11:19:59;;;;;;;;;;;16.10;99.90;;;;;;5104801;28;19920;-73
2022/10/25 11:22:33;;;;;;;;;;;16.20;99.90;;;;;;5105067;28;20119;-74
2022/10/25 11:25:08;;;;;;;;;;;16.10;99.90;;;;;;5104228;28;20000;-74
2022/10/25 11:27:41;;;;;;;;;;;16.10;99.90;;;;;;5104785;28;19920;-73
2022/10/25 11:30:09;;;;;;;;;;;16.00;99.90;;;;;;5104606;28;20200;-73
2022/10/25 11:33:03;;;;;;;;;;;16.20;99.90;;;;;;5104609;28;20183;-74
2022/10/25 11:35:40;;;;;;;;;;;16.50;99.90;;;;;;5104085;28;19983;-74
2022/10/25 11:38:09;;;;;;;;;;;16.70;99.90;;;;;;5104475;28;19979;-73
2022/10/25 11:40:39;;;;;;;;;;;17.00;99.90;;;;;;5104819;28;19939;-72
2022/10/25 11:43:13;;;;;;;;;;;17.30;99.90;;;;;;5105235;27;19942;-71
2022/10/25 11:45:41;;;;;;;;;;;17.40;99.90;;;;;;5132140;27;19964;-70
2022/10/25 11:48:25;;;;;;;;;;;17.70;99.90;;;;;;5128986;27;19920;-71
2022/10/25 11:50:58;;;;;;;;;;;18.00;99.90;;;;;;5121078;28;20074;-71
2022/10/25 11:53:40;;;;;;;;;;;18.00;99.90;;;;;;5104412;28;19962;-71
2022/10/25 11:56:09;;;;;;;;;;;17.90;99.90;;;;;;5100233;28;19955;-71
2022/10/25 11:58:39;;;;;;;;;;;17.70;99.90;;;;;;5104228;28;19920;-71
2022/10/25 12:01:12;;;;;;;;;;;17.50;99.90;;;;;;5101497;28;19926;-71
2022/10/25 12:03:45;;;;;;;;;;;17.30;99.90;;;;;;5103862;28;19926;-71
2022/10/25 12:06:17;;;;;;;;;;;17.00;99.90;;;;;;5110130;28;20002;-71
2022/10/25 12:08:49;;;;;;;;;;;16.90;99.90;;;;;;5124122;28;19920;-71
2022/10/25 12:11:17;;;;;;;;;;;16.80;99.90;;;;;;5121647;28;19920;-71
2022/10/25 12:13:46;;;;;;;;;;;16.90;99.90;;;;;;5124308;28;19920;-70
2022/10/25 12:16:14;;;;;;;;;;;17.00;99.90;;;;;;5122430;28;19927;-71
2022/10/25 12:18:43;;;;;;;;;;;17.10;99.90;;;;;;5105351;28;19982;-71
2022/10/25 12:21:12;;;;;;;;;;;17.00;99.90;;;;;;5124045;28;19920;-71
2022/10/25 12:23:42;;;;;;;;;;;17.00;99.90;;;;;;5103978;28;19979;-71
2022/10/25 12:26:11;;;;;;;;;;;17.10;99.90;;;;;;5102920;28;20081;-71
2022/10/25 12:28:43;;;;;;;;;;;17.20;99.90;;;;;;5103877;28;20008;-71
2022/10/25 12:31:13;;;;;;;;;;;17.10;99.90;;;;;;5103796;28;20116;-71
2022/10/25 12:33:41;;;;;;;;;;;17.00;99.90;;;;;;5103724;28;19943;-71
2022/10/25 12:36:11;;;;;;;;;;;16.90;99.90;;;;;;5102617;28;19920;-71
2022/10/25 12:38:39;;;;;;;;;;;16.80;99.90;;;;;;5103561;28;19920;-71
2022/10/25 12:41:09;;;;;;;;;;;16.70;99.90;;;;;;5104954;28;19996;-71
2022/10/25 12:43:37;;;;;;;;;;;16.70;99.90;;;;;;5103845;28;19979;-71
2022/10/25 12:46:15;;;;;;;;;;;16.60;99.90;;;;;;5102797;28;19920;-71
2022/10/25 12:48:57;;;;;;;;;;;16.50;99.90;;;;;;5103533;28;20114;-72
2022/10/25 12:51:31;;;;;;;;;;;16.30;99.90;;;;;;5100002;28;19951;-72
2022/10/25 12:54:05;;;;;;;;;;;16.30;99.90;;;;;;5103621;28;19928;-71
2022/10/25 12:56:39;;;;;;;;;;;16.30;99.90;;;;;;5102728;28;19919;-71
2022/10/25 12:59:07;;;;;;;;;;;16.30;99.90;;;;;;5103571;28;20208;-72
2022/10/25 13:01:42;;;;;;;;;;;16.20;99.90;;;;;;5103279;28;19920;-71
2022/10/25 13:04:36;;;;;;;;;;;16.10;99.90;;;;;;5103410;28;20211;-72
2022/10/25 13:07:03;;;;;;;;;;;16.30;99.90;;;;;;5073245;28;19979;-72
2022/10/25 13:09:30;;;;;;;;;;;16.40;99.90;;;;;;5100985;28;19927;-72
2022/10/25 13:12:00;;;;;;;;;;;16.50;99.90;;;;;;5103278;28;19920;-72
2022/10/25 13:14:28;;;;;;;;;;;16.40;99.90;;;;;;5103108;28;19926;-73
2022/10/25 13:17:09;;;;;;;;;;;16.40;99.90;;;;;;5102591;28;20199;-72
2022/10/25 13:19:36;;;;;;;;;;;16.30;99.90;;;;;;5122196;28;19926;-73
2022/10/25 13:22:10;;;;;;;;;;;16.30;99.90;;;;;;5123589;28;19926;-72
2022/10/25 13:24:37;;;;;;;;;;;16.60;99.90;;;;;;5122784;28;19919;-72
2022/10/25 13:27:19;;;;;;;;;;;17.00;99.90;;;;;;5123292;28;19920;-72
2022/10/25 13:29:57;;;;;;;;;;;17.30;99.90;;;;;;5123226;28;19959;-70
2022/10/25 13:32:24;;;;;;;;;;;17.40;99.90;;;;;;5121136;28;20262;-71
2022/10/25 13:34:50;;;;;;;;;;;17.30;99.90;;;;;;5122315;28;19927;-70
2022/10/25 13:37:41;;;;;;;;;;;17.30;99.90;;;;;;5123406;28;19934;-71
2022/10/25 13:40:17;;;;;;;;;;;17.40;99.90;;;;;;5122600;28;19935;-71
2022/10/25 13:42:44;;;;;;;;;;;17.60;99.90;;;;;;5113761;28;19920;-71
2022/10/25 13:45:20;;;;;;;;;;;17.70;99.90;;;;;;5101920;28;19982;-70
2022/10/25 13:47:48;;;;;;;;;;;17.90;99.90;;;;;;5102763;28;19934;-70
2022/10/25 13:50:18;;;;;;;;;;;18.10;99.90;;;;;;5102025;28;19927;-72
2022/10/25 13:52:48;;;;;;;;;;;18.30;99.90;;;;;;5105811;28;20162;-70
2022/10/25 13:55:16;;;;;;;;;;;18.40;99.90;;;;;;5115849;28;19919;-70
2022/10/25 13:57:46;;;;;;;;;;;18.40;99.90;;;;;;5126749;28;19986;-71
2022/10/25 14:00:27;;;;;;;;;;;18.50;99.90;;;;;;5125727;27;20210;-70
2022/10/25 14:03:03;;;;;;;;;;;18.70;99.90;;;;;;5125973;28;19982;-73
2022/10/25 14:05:49;;;;;;;;;;;18.90;99.90;;;;;;5126273;28;19982;-72
2022/10/25 14:08:18;;;;;;;;;;;19.20;99.90;;;;;;5126741;28;19920;-70
2022/10/25 14:10:47;;;;;;;;;;;19.40;99.90;;;;;;5111937;28;19920;-72
2022/10/25 14:13:16;;;;;;;;;;;19.40;99.90;;;;;;5106287;28;19963;-69
2022/10/25 14:15:46;;;;;;;;;;;19.50;99.90;;;;;;5105230;28;19920;-70
2022/10/25 14:18:15;;;;;;;;;;;19.60;99.90;;;;;;5106381;28;20208;-70
2022/10/25 14:20:44;;;;;;;;;;;19.70;99.90;;;;;;5106586;28;19924;-70
2022/10/25 14:23:14;;;;;;;;;;;19.70;99.90;;;;;;5105897;28;20143;-70
2022/10/25 14:25:41;;;;;;;;;;;19.80;99.90;;;;;;5105187;28;20263;-70
2022/10/25 14:28:13;;;;;;;;;;;19.80;99.90;;;;;;5105672;28;20208;-70